sensor_id;sensor_type;location;lat;lon;timestamp;temperature;humidity
2621;DHT22;1320;48.128;11.592;2024-03-06T00:02:24;8.80;99.90
2621;DHT22;1320;48.128;11.592;2024-03-06T00:04:49;8.80;99.90
2621;DHT22;1320;48.128;11.592;2024-03-06T00:07:15;8.70;99.90
2621;DHT22;1320;48.128;11.592;2024-03-06T00:09:42;8.70;99.90
2621;DHT22;1320;48.128;11.592;2024-03-06T00:12:08;8.70;99.90
2621;DHT22;1320;48.128;11.592;2024-03-06T00:14:34;8.70;99.90
2621;DHT22;1320;48.128;11.592;2024-03-06T00:17:02;8.60;99.90
2621;DHT22;1320;48.128;11.592;2024-03-06T00:19:30;8.60;99.90
2621;DHT22;1320;48.128;11.592;2024-03-06T00:21:55;8.60;99.90
2621;DHT22;1320;48.128;11.592;2024-03-06T00:24:21;8.60;99.90
2621;DHT22;1320;48.128;11.592;2024-03-06T00:26:48;8.60;99.90
2621;DHT22;1320;48.128;11.592;2024-03-06T00:29:14;8.60;99.90
2621;DHT22;1320;48.128;11.592;2024-03-06T00:31:44;8.60;99.90
2621;DHT22;1320;48.128;11.592;2024-03-06T00:34:10;8.60;99.90
2621;DHT22;1320;48.128;11.592;2024-03-06T00:36:39;8.60;99.90
2621;DHT22;1320;48.128;11.592;2024-03-06T00:39:05;8.60;99.90
2621;DHT22;1320;48.128;11.592;2024-03-06T00:41:31;8.60;99.90
2621;DHT22;1320;48.128;11.592;2024-03-06T00:43:57;8.60;99.90
2621;DHT22;1320;48.128;11.592;2024-03-06T00:46:23;8.60;99.90
2621;DHT22;1320;48.128;11.592;2024-03-06T00:48:49;8.60;99.90
2621;DHT22;1320;48.128;11.592;2024-03-06T00:51:14;8.60;99.90
2621;DHT22;1320;48.128;11.592;2024-03-06T00:53:40;8.60;99.90
2621;DHT22;1320;48.128;11.592;2024-03-06T00:56:07;8.50;99.90
2621;DHT22;1320;48.128;11.592;2024-03-06T00:58:32;8.60;99.90
2621;DHT22;1320;48.128;11.592;2024-03-06T01:00:58;8.60;99.90
2621;DHT22;1320;48.128;11.592;2024-03-06T01:03:24;8.60;99.90
2621;DHT22;1320;48.128;11.592;2024-03-06T01:05:50;8.60;99.90
2621;DHT22;1320;48.128;11.592;2024-03-06T01:08:17;8.60;99.90
2621;DHT22;1320;48.128;11.592;2024-03-06T01:10:43;8.60;99.90
2621;DHT22;1320;48.128;11.592;2024-03-06T01:13:10;8.70;99.90
2621;DHT22;1320;48.128;11.592;2024-03-06T01:15:37;8.70;99.90
2621;DHT22;1320;48.128;11.592;2024-03-06T01:18:03;8.60;99.90
2621;DHT22;1320;48.128;11.592;2024-03-06T01:20:29;8.60;99.90
2621;DHT22;1320;48.128;11.592;2024-03-06T01:22:54;8.60;99.90
2621;DHT22;1320;48.128;11.592;2024-03-06T01:25:20;8.70;99.90
2621;DHT22;1320;48.128;11.592;2024-03-06T01:27:48;8.70;99.90
2621;DHT22;1320;48.128;11.592;2024-03-06T01:30:13;8.70;99.90
2621;DHT22;1320;48.128;11.592;2024-03-06T01:32:39;8.70;99.90
2621;DHT22;1320;48.128;11.592;2024-03-06T01:35:05;8.60;99.90
2621;DHT22;1320;48.128;11.592;2024-03-06T01:37:32;8.60;99.90
2621;DHT22;1320;48.128;11.592;2024-03-06T01:39:57;8.60;99.90
2621;DHT22;1320;48.128;11.592;2024-03-06T01:42:23;8.60;99.90
2621;DHT22;1320;48.128;11.592;2024-03-06T01:44:49;8.60;99.90
2621;DHT22;1320;48.128;11.592;2024-03-06T01:47:15;8.60;99.90
2621;DHT22;1320;48.128;11.592;2024-03-06T01:49:41;8.60;99.90
2621;DHT22;1320;48.128;11.592;2024-03-06T01:52:11;8.60;99.90
2621;DHT22;1320;48.128;11.592;2024-03-06T01:54:38;8.60;99.90
2621;DHT22;1320;48.128;11.592;2024-03-06T01:57:05;8.60;99.90
2621;DHT22;1320;48.128;11.592;2024-03-06T01:59:33;8.60;99.90
2621;DHT22;1320;48.128;11.592;2024-03-06T02:02:00;8.60;99.90
2621;DHT22;1320;48.128;11.592;2024-03-06T02:04:29;8.50;99.90
2621;DHT22;1320;48.128;11.592;2024-03-06T02:06:56;8.50;99.90
2621;DHT22;1320;48.128;11.592;2024-03-06T02:09:23;8.50;99.90
2621;DHT22;1320;48.128;11.592;2024-03-06T02:11:49;8.40;99.90
2621;DHT22;1320;48.128;11.592;2024-03-06T02:14:16;8.40;99.90
2621;DHT22;1320;48.128;11.592;2024-03-06T02:16:42;8.40;99.90
2621;DHT22;1320;48.128;11.592;2024-03-06T02:50:56;8.50;99.90
2621;DHT22;1320;48.128;11.592;2024-03-06T02:53:22;8.50;99.90
2621;DHT22;1320;48.128;11.592;2024-03-06T02:55:47;8.50;99.90
2621;DHT22;1320;48.128;11.592;2024-03-06T02:58:14;8.50;99.90
2621;DHT22;1320;48.128;11.592;2024-03-06T03:00:40;8.50;99.90
2621;DHT22;1320;48.128;11.592;2024-03-06T03:03:06;8.50;99.90
2621;DHT22;1320;48.128;11.592;2024-03-06T03:05:32;8.30;99.90
2621;DHT22;1320;48.128;11.592;2024-03-06T03:07:59;8.20;99.90
2621;DHT22;1320;48.128;11.592;2024-03-06T03:10:26;8.10;99.90
2621;DHT22;1320;48.128;11.592;2024-03-06T03:12:53;8.00;99.90
2621;DHT22;1320;48.128;11.592;2024-03-06T03:15:19;8.00;99.90
2621;DHT22;1320;48.128;11.592;2024-03-06T03:17:46;8.00;99.90
2621;DHT22;1320;48.128;11.592;2024-03-06T03:20:11;8.00;99.90
2621;DHT22;1320;48.128;11.592;2024-03-06T03:22:41;8.00;99.90
2621;DHT22;1320;48.128;11.592;2024-03-06T03:25:08;7.90;99.90
2621;DHT22;1320;48.128;11.592;2024-03-06T03:27:34;7.80;99.90
2621;DHT22;1320;48.128;11.592;2024-03-06T03:29:59;7.70;99.90
2621;DHT22;1320;48.128;11.592;2024-03-06T03:32:25;7.70;99.90
2621;DHT22;1320;48.128;11.592;2024-03-06T03:34:50;7.60;99.90
2621;DHT22;1320;48.128;11.592;2024-03-06T03:37:16;7.40;99.90
2621;DHT22;1320;48.128;11.592;2024-03-06T03:42:10;7.20;99.90
2621;DHT22;1320;48.128;11.592;2024-03-06T03:44:36;7.20;99.90
2621;DHT22;1320;48.128;11.592;2024-03-06T03:47:01;7.10;99.90
2621;DHT22;1320;48.128;11.592;2024-03-06T03:49:27;7.00;99.90
2621;DHT22;1320;48.128;11.592;2024-03-06T03:51:53;7.00;99.90
2621;DHT22;1320;48.128;11.592;2024-03-06T03:54:19;7.00;99.90
2621;DHT22;1320;48.128;11.592;2024-03-06T03:56:44;7.00;99.90
2621;DHT22;1320;48.128;11.592;2024-03-06T03:59:10;7.00;99.90
2621;DHT22;1320;48.128;11.592;2024-03-06T04:01:36;7.00;99.90
2621;DHT22;1320;48.128;11.592;2024-03-06T04:04:01;7.00;99.90
2621;DHT22;1320;48.128;11.592;2024-03-06T04:06:27;7.00;99.90
2621;DHT22;1320;48.128;11.592;2024-03-06T04:08:53;7.00;99.90
2621;DHT22;1320;48.128;11.592;2024-03-06T04:11:18;7.10;99.90
2621;DHT22;1320;48.128;11.592;2024-03-06T04:13:44;7.10;99.90
2621;DHT22;1320;48.128;11.592;2024-03-06T04:16:16;7.10;99.90
2621;DHT22;1320;48.128;11.592;2024-03-06T04:18:42;7.00;99.90
2621;DHT22;1320;48.128;11.592;2024-03-06T04:21:07;7.00;99.90
2621;DHT22;1320;48.128;11.592;2024-03-06T04:23:34;6.90;99.90
2621;DHT22;1320;48.128;11.592;2024-03-06T04:26:01;6.90;99.90
2621;DHT22;1320;48.128;11.592;2024-03-06T04:28:26;6.90;99.90
2621;DHT22;1320;48.128;11.592;2024-03-06T04:30:52;6.80;99.90
2621;DHT22;1320;48.128;11.592;2024-03-06T04:33:18;6.70;99.90
2621;DHT22;1320;48.128;11.592;2024-03-06T04:35:43;6.70;99.90
2621;DHT22;1320;48.128;11.592;2024-03-06T04:38:09;6.70;99.90
2621;DHT22;1320;48.128;11.592;2024-03-06T04:40:35;6.70;99.90
2621;DHT22;1320;48.128;11.592;2024-03-06T04:43:01;6.70;99.90
2621;DHT22;1320;48.128;11.592;2024-03-06T04:45:27;6.70;99.90
2621;DHT22;1320;48.128;11.592;2024-03-06T04:47:54;6.70;99.90
2621;DHT22;1320;48.128;11.592;2024-03-06T04:50:23;6.70;99.90
2621;DHT22;1320;48.128;11.592;2024-03-06T04:52:49;6.70;99.90
2621;DHT22;1320;48.128;11.592;2024-03-06T04:55:14;6.70;99.90
2621;DHT22;1320;48.128;11.592;2024-03-06T04:57:45;6.70;99.90
2621;DHT22;1320;48.128;11.592;2024-03-06T05:00:12;6.70;99.90
2621;DHT22;1320;48.128;11.592;2024-03-06T05:02:38;6.70;99.90
2621;DHT22;1320;48.128;11.592;2024-03-06T05:05:04;6.70;99.90
2621;DHT22;1320;48.128;11.592;2024-03-06T05:07:31;6.70;99.90
2621;DHT22;1320;48.128;11.592;2024-03-06T05:09:58;6.60;99.90
2621;DHT22;1320;48.128;11.592;2024-03-06T05:12:27;6.50;99.90
2621;DHT22;1320;48.128;11.592;2024-03-06T07:02:22;6.30;99.90
2621;DHT22;1320;48.128;11.592;2024-03-06T07:04:49;6.30;99.90
2621;DHT22;1320;48.128;11.592;2024-03-06T07:07:15;6.30;99.90
2621;DHT22;1320;48.128;11.592;2024-03-06T07:09:40;6.30;99.90
2621;DHT22;1320;48.128;11.592;2024-03-06T07:14:34;6.40;99.90
2621;DHT22;1320;48.128;11.592;2024-03-06T07:17:00;6.40;99.90
2621;DHT22;1320;48.128;11.592;2024-03-06T07:19:26;6.30;99.90
2621;DHT22;1320;48.128;11.592;2024-03-06T07:21:51;6.20;99.90
2621;DHT22;1320;48.128;11.592;2024-03-06T07:24:19;6.20;99.90
2621;DHT22;1320;48.128;11.592;2024-03-06T07:26:44;6.20;99.90
2621;DHT22;1320;48.128;11.592;2024-03-06T07:29:10;6.20;99.90
2621;DHT22;1320;48.128;11.592;2024-03-06T07:31:43;6.20;99.90
2621;DHT22;1320;48.128;11.592;2024-03-06T07:34:09;6.10;99.90
2621;DHT22;1320;48.128;11.592;2024-03-06T07:36:35;6.10;99.90
2621;DHT22;1320;48.128;11.592;2024-03-06T07:39:04;6.10;99.90
2621;DHT22;1320;48.128;11.592;2024-03-06T07:41:30;6.20;99.90
2621;DHT22;1320;48.128;11.592;2024-03-06T07:43:58;6.20;99.90
2621;DHT22;1320;48.128;11.592;2024-03-06T07:46:25;6.20;99.90
2621;DHT22;1320;48.128;11.592;2024-03-06T07:48:51;6.20;99.90
2621;DHT22;1320;48.128;11.592;2024-03-06T07:51:17;6.20;99.90
2621;DHT22;1320;48.128;11.592;2024-03-06T07:53:43;6.20;99.90
2621;DHT22;1320;48.128;11.592;2024-03-06T07:56:11;6.20;99.90
2621;DHT22;1320;48.128;11.592;2024-03-06T07:58:38;6.20;99.90
2621;DHT22;1320;48.128;11.592;2024-03-06T08:01:04;6.10;99.90
2621;DHT22;1320;48.128;11.592;2024-03-06T08:03:29;6.00;99.90
2621;DHT22;1320;48.128;11.592;2024-03-06T08:05:55;6.00;99.90
2621;DHT22;1320;48.128;11.592;2024-03-06T08:08:21;6.00;99.90
2621;DHT22;1320;48.128;11.592;2024-03-06T08:10:47;6.10;99.90
2621;DHT22;1320;48.128;11.592;2024-03-06T08:13:13;6.20;99.90
2621;DHT22;1320;48.128;11.592;2024-03-06T08:15:39;6.20;99.90
2621;DHT22;1320;48.128;11.592;2024-03-06T08:18:06;6.30;99.90
2621;DHT22;1320;48.128;11.592;2024-03-06T08:20:32;6.30;99.90
2621;DHT22;1320;48.128;11.592;2024-03-06T08:22:59;6.20;99.90
2621;DHT22;1320;48.128;11.592;2024-03-06T08:25:24;6.20;99.90
2621;DHT22;1320;48.128;11.592;2024-03-06T08:27:50;6.30;99.90
2621;DHT22;1320;48.128;11.592;2024-03-06T08:30:16;6.30;99.90
2621;DHT22;1320;48.128;11.592;2024-03-06T08:32:42;6.40;99.90
2621;DHT22;1320;48.128;11.592;2024-03-06T08:35:11;6.40;99.90
2621;DHT22;1320;48.128;11.592;2024-03-06T08:37:37;6.40;99.90
2621;DHT22;1320;48.128;11.592;2024-03-06T08:40:05;6.50;99.90
2621;DHT22;1320;48.128;11.592;2024-03-06T08:42:30;6.50;99.90
2621;DHT22;1320;48.128;11.592;2024-03-06T08:44:58;6.50;99.90
2621;DHT22;1320;48.128;11.592;2024-03-06T08:47:23;6.50;99.90
2621;DHT22;1320;48.128;11.592;2024-03-06T08:49:49;6.60;99.90
2621;DHT22;1320;48.128;11.592;2024-03-06T08:52:15;6.60;99.90
2621;DHT22;1320;48.128;11.592;2024-03-06T08:54:41;6.50;99.90
2621;DHT22;1320;48.128;11.592;2024-03-06T08:57:07;6.60;99.90
2621;DHT22;1320;48.128;11.592;2024-03-06T08:59:34;6.60;99.90
2621;DHT22;1320;48.128;11.592;2024-03-06T09:02:15;6.60;99.90
2621;DHT22;1320;48.128;11.592;2024-03-06T09:04:42;6.60;99.90
2621;DHT22;1320;48.128;11.592;2024-03-06T09:07:08;6.60;99.90
2621;DHT22;1320;48.128;11.592;2024-03-06T09:09:34;6.60;99.90
2621;DHT22;1320;48.128;11.592;2024-03-06T09:12:01;6.60;99.90
2621;DHT22;1320;48.128;11.592;2024-03-06T09:14:26;6.70;99.90
2621;DHT22;1320;48.128;11.592;2024-03-06T09:16:52;6.70;99.90
2621;DHT22;1320;48.128;11.592;2024-03-06T09:19:18;6.80;99.90
2621;DHT22;1320;48.128;11.592;2024-03-06T09:21:43;6.90;99.90
2621;DHT22;1320;48.128;11.592;2024-03-06T09:24:09;6.90;99.90
2621;DHT22;1320;48.128;11.592;2024-03-06T09:26:37;6.90;99.90
2621;DHT22;1320;48.128;11.592;2024-03-06T09:29:02;6.90;99.90
2621;DHT22;1320;48.128;11.592;2024-03-06T09:31:28;6.90;99.90
2621;DHT22;1320;48.128;11.592;2024-03-06T09:33:54;7.00;99.90
2621;DHT22;1320;48.128;11.592;2024-03-06T09:36:19;7.00;99.90
2621;DHT22;1320;48.128;11.592;2024-03-06T09:38:45;7.00;99.90
2621;DHT22;1320;48.128;11.592;2024-03-06T09:41:11;7.10;99.90
2621;DHT22;1320;48.128;11.592;2024-03-06T09:43:37;7.10;99.90
2621;DHT22;1320;48.128;11.592;2024-03-06T09:46:02;7.10;99.90
2621;DHT22;1320;48.128;11.592;2024-03-06T09:48:29;7.10;99.90
2621;DHT22;1320;48.128;11.592;2024-03-06T09:51:01;7.10;99.90
2621;DHT22;1320;48.128;11.592;2024-03-06T09:53:30;7.20;99.90
2621;DHT22;1320;48.128;11.592;2024-03-06T09:55:56;7.30;99.90
2621;DHT22;1320;48.128;11.592;2024-03-06T09:58:23;7.40;99.90
2621;DHT22;1320;48.128;11.592;2024-03-06T10:00:50;7.30;99.90
2621;DHT22;1320;48.128;11.592;2024-03-06T10:03:16;7.40;99.90
2621;DHT22;1320;48.128;11.592;2024-03-06T10:05:42;7.40;99.90
2621;DHT22;1320;48.128;11.592;2024-03-06T10:08:09;7.40;99.90
2621;DHT22;1320;48.128;11.592;2024-03-06T10:10:35;7.40;99.90
2621;DHT22;1320;48.128;11.592;2024-03-06T10:13:02;7.40;99.90
2621;DHT22;1320;48.128;11.592;2024-03-06T10:15:27;7.40;99.90
2621;DHT22;1320;48.128;11.592;2024-03-06T10:18:16;7.40;99.90
2621;DHT22;1320;48.128;11.592;2024-03-06T10:20:44;7.30;99.90
2621;DHT22;1320;48.128;11.592;2024-03-06T10:23:10;7.30;99.90
2621;DHT22;1320;48.128;11.592;2024-03-06T10:25:36;7.30;99.90
2621;DHT22;1320;48.128;11.592;2024-03-06T10:28:09;7.20;99.90
2621;DHT22;1320;48.128;11.592;2024-03-06T10:30:36;7.20;99.90
2621;DHT22;1320;48.128;11.592;2024-03-06T10:33:06;7.20;99.90
2621;DHT22;1320;48.128;11.592;2024-03-06T10:35:35;7.20;99.90
2621;DHT22;1320;48.128;11.592;2024-03-06T10:38:05;7.10;99.90
2621;DHT22;1320;48.128;11.592;2024-03-06T10:40:35;7.10;99.90
2621;DHT22;1320;48.128;11.592;2024-03-06T10:43:03;7.10;99.90
2621;DHT22;1320;48.128;11.592;2024-03-06T10:47:59;7.20;99.90
2621;DHT22;1320;48.128;11.592;2024-03-06T10:50:26;7.20;99.90
2621;DHT22;1320;48.128;11.592;2024-03-06T10:52:53;7.20;99.90
2621;DHT22;1320;48.128;11.592;2024-03-06T10:55:21;7.30;99.90
2621;DHT22;1320;48.128;11.592;2024-03-06T10:57:48;7.40;99.90
2621;DHT22;1320;48.128;11.592;2024-03-06T11:00:14;7.40;99.90
2621;DHT22;1320;48.128;11.592;2024-03-06T11:02:46;7.40;99.90
2621;DHT22;1320;48.128;11.592;2024-03-06T11:05:15;7.30;99.90
2621;DHT22;1320;48.128;11.592;2024-03-06T11:07:41;7.40;99.90
2621;DHT22;1320;48.128;11.592;2024-03-06T11:10:08;7.40;99.90
2621;DHT22;1320;48.128;11.592;2024-03-06T11:12:42;7.50;99.90
2621;DHT22;1320;48.128;11.592;2024-03-06T11:15:14;7.60;99.90
2621;DHT22;1320;48.128;11.592;2024-03-06T11:17:40;7.60;99.90
2621;DHT22;1320;48.128;11.592;2024-03-06T11:20:12;7.70;99.90
2621;DHT22;1320;48.128;11.592;2024-03-06T11:28:28;7.80;99.90
2621;DHT22;1320;48.128;11.592;2024-03-06T11:33:20;7.70;99.90
2621;DHT22;1320;48.128;11.592;2024-03-06T11:38:41;7.70;99.90
2621;DHT22;1320;48.128;11.592;2024-03-06T11:41:06;7.70;99.90
2621;DHT22;1320;48.128;11.592;2024-03-06T11:43:32;7.80;99.90
2621;DHT22;1320;48.128;11.592;2024-03-06T11:46:08;7.80;99.90
2621;DHT22;1320;48.128;11.592;2024-03-06T11:48:35;7.80;99.90
2621;DHT22;1320;48.128;11.592;2024-03-06T11:51:01;7.70;99.90
2621;DHT22;1320;48.128;11.592;2024-03-06T11:53:30;7.70;99.90
2621;DHT22;1320;48.128;11.592;2024-03-06T11:55:56;7.70;99.90
2621;DHT22;1320;48.128;11.592;2024-03-06T11:58:22;7.80;99.90
2621;DHT22;1320;48.128;11.592;2024-03-06T12:00:48;7.80;99.90
2621;DHT22;1320;48.128;11.592;2024-03-06T12:03:14;7.80;99.90
2621;DHT22;1320;48.128;11.592;2024-03-06T12:05:39;7.80;99.90
2621;DHT22;1320;48.128;11.592;2024-03-06T12:08:07;7.70;99.90
2621;DHT22;1320;48.128;11.592;2024-03-06T12:10:39;7.80;99.90
2621;DHT22;1320;48.128;11.592;2024-03-06T12:13:04;7.70;99.90
2621;DHT22;1320;48.128;11.592;2024-03-06T12:15:31;7.70;99.90
2621;DHT22;1320;48.128;11.592;2024-03-06T12:17:56;7.70;99.90
2621;DHT22;1320;48.128;11.592;2024-03-06T12:20:24;7.70;99.90
2621;DHT22;1320;48.128;11.592;2024-03-06T12:22:52;7.70;99.90
2621;DHT22;1320;48.128;11.592;2024-03-06T12:25:24;7.70;99.90
2621;DHT22;1320;48.128;11.592;2024-03-06T12:27:52;7.70;99.90
2621;DHT22;1320;48.128;11.592;2024-03-06T12:30:19;7.70;99.90
2621;DHT22;1320;48.128;11.592;2024-03-06T12:33:06;7.70;99.90
2621;DHT22;1320;48.128;11.592;2024-03-06T12:35:32;7.70;99.90
2621;DHT22;1320;48.128;11.592;2024-03-06T12:37:58;7.70;99.90
2621;DHT22;1320;48.128;11.592;2024-03-06T12:40:25;7.70;99.90
2621;DHT22;1320;48.128;11.592;2024-03-06T12:42:50;7.70;99.90
2621;DHT22;1320;48.128;11.592;2024-03-06T12:45:18;7.70;99.90
2621;DHT22;1320;48.128;11.592;2024-03-06T12:47:45;7.70;99.90
2621;DHT22;1320;48.128;11.592;2024-03-06T12:50:14;7.70;99.90
2621;DHT22;1320;48.128;11.592;2024-03-06T12:52:41;7.70;99.90
2621;DHT22;1320;48.128;11.592;2024-03-06T12:55:07;7.70;99.90
2621;DHT22;1320;48.128;11.592;2024-03-06T12:57:34;7.80;99.90
2621;DHT22;1320;48.128;11.592;2024-03-06T13:00:00;7.80;99.90
2621;DHT22;1320;48.128;11.592;2024-03-06T13:02:26;7.90;99.90
2621;DHT22;1320;48.128;11.592;2024-03-06T13:04:52;7.90;99.90
2621;DHT22;1320;48.128;11.592;2024-03-06T13:07:18;7.90;99.90
2621;DHT22;1320;48.128;11.592;2024-03-06T13:09:44;7.90;99.90
2621;DHT22;1320;48.128;11.592;2024-03-06T13:12:10;7.90;99.90
2621;DHT22;1320;48.128;11.592;2024-03-06T13:14:36;7.90;99.90
2621;DHT22;1320;48.128;11.592;2024-03-06T13:17:02;7.90;99.90
2621;DHT22;1320;48.128;11.592;2024-03-06T13:19:28;7.90;99.90
2621;DHT22;1320;48.128;11.592;2024-03-06T13:21:54;7.90;99.90
2621;DHT22;1320;48.128;11.592;2024-03-06T13:24:20;7.80;99.90
2621;DHT22;1320;48.128;11.592;2024-03-06T13:26:46;7.80;99.90
2621;DHT22;1320;48.128;11.592;2024-03-06T13:29:13;7.90;99.90
2621;DHT22;1320;48.128;11.592;2024-03-06T13:31:39;7.90;99.90
2621;DHT22;1320;48.128;11.592;2024-03-06T13:34:05;7.90;99.90
2621;DHT22;1320;48.128;11.592;2024-03-06T13:36:30;7.90;99.90
2621;DHT22;1320;48.128;11.592;2024-03-06T13:38:56;7.90;99.90
2621;DHT22;1320;48.128;11.592;2024-03-06T13:41:23;7.90;99.90
2621;DHT22;1320;48.128;11.592;2024-03-06T13:43:49;7.90;99.90
2621;DHT22;1320;48.128;11.592;2024-03-06T13:46:14;7.90;99.90
2621;DHT22;1320;48.128;11.592;2024-03-06T13:48:40;7.90;99.90
2621;DHT22;1320;48.128;11.592;2024-03-06T13:51:06;7.90;99.90
2621;DHT22;1320;48.128;11.592;2024-03-06T13:53:32;8.00;99.90
2621;DHT22;1320;48.128;11.592;2024-03-06T13:55:57;8.00;99.90
2621;DHT22;1320;48.128;11.592;2024-03-06T13:58:23;8.00;99.90
2621;DHT22;1320;48.128;11.592;2024-03-06T14:00:50;8.00;99.90
2621;DHT22;1320;48.128;11.592;2024-03-06T14:03:16;8.00;99.90
2621;DHT22;1320;48.128;11.592;2024-03-06T14:05:42;8.00;99.90
2621;DHT22;1320;48.128;11.592;2024-03-06T14:08:08;7.90;99.90
2621;DHT22;1320;48.128;11.592;2024-03-06T14:10:39;7.90;99.90
2621;DHT22;1320;48.128;11.592;2024-03-06T14:13:05;7.90;99.90
2621;DHT22;1320;48.128;11.592;2024-03-06T14:15:32;7.90;99.90
2621;DHT22;1320;48.128;11.592;2024-03-06T14:17:58;7.90;99.90
2621;DHT22;1320;48.128;11.592;2024-03-06T14:20:24;7.80;99.90
2621;DHT22;1320;48.128;11.592;2024-03-06T14:22:50;7.80;99.90
2621;DHT22;1320;48.128;11.592;2024-03-06T14:25:16;7.80;99.90
2621;DHT22;1320;48.128;11.592;2024-03-06T14:27:43;7.80;99.90
2621;DHT22;1320;48.128;11.592;2024-03-06T14:30:09;7.90;99.90
2621;DHT22;1320;48.128;11.592;2024-03-06T14:32:37;7.90;99.90
2621;DHT22;1320;48.128;11.592;2024-03-06T14:35:04;7.90;99.90
2621;DHT22;1320;48.128;11.592;2024-03-06T14:37:30;7.90;99.90
2621;DHT22;1320;48.128;11.592;2024-03-06T14:39:57;7.90;99.90
2621;DHT22;1320;48.128;11.592;2024-03-06T14:42:22;7.80;99.90
2621;DHT22;1320;48.128;11.592;2024-03-06T14:44:49;7.70;99.90
2621;DHT22;1320;48.128;11.592;2024-03-06T14:47:14;7.70;99.90
2621;DHT22;1320;48.128;11.592;2024-03-06T14:49:42;7.60;99.90
2621;DHT22;1320;48.128;11.592;2024-03-06T14:52:09;7.60;99.90
2621;DHT22;1320;48.128;11.592;2024-03-06T14:54:35;7.60;99.90
2621;DHT22;1320;48.128;11.592;2024-03-06T14:57:01;7.70;99.90
2621;DHT22;1320;48.128;11.592;2024-03-06T14:59:26;7.70;99.90
2621;DHT22;1320;48.128;11.592;2024-03-06T15:01:52;7.70;99.90
2621;DHT22;1320;48.128;11.592;2024-03-06T15:04:18;7.70;99.90
2621;DHT22;1320;48.128;11.592;2024-03-06T15:06:45;7.60;99.90
2621;DHT22;1320;48.128;11.592;2024-03-06T15:09:11;7.60;99.90
2621;DHT22;1320;48.128;11.592;2024-03-06T15:11:41;7.60;99.90
2621;DHT22;1320;48.128;11.592;2024-03-06T15:14:07;7.60;99.90
2621;DHT22;1320;48.128;11.592;2024-03-06T15:16:34;7.60;99.90
2621;DHT22;1320;48.128;11.592;2024-03-06T15:19:00;7.60;99.90
2621;DHT22;1320;48.128;11.592;2024-03-06T15:21:29;7.60;99.90
2621;DHT22;1320;48.128;11.592;2024-03-06T15:23:56;7.60;99.90
2621;DHT22;1320;48.128;11.592;2024-03-06T15:26:22;7.60;99.90
2621;DHT22;1320;48.128;11.592;2024-03-06T15:28:47;7.60;99.90
2621;DHT22;1320;48.128;11.592;2024-03-06T15:31:14;7.60;99.90
2621;DHT22;1320;48.128;11.592;2024-03-06T15:33:40;7.60;99.90
2621;DHT22;1320;48.128;11.592;2024-03-06T15:36:05;7.60;99.90
2621;DHT22;1320;48.128;11.592;2024-03-06T15:38:31;7.60;99.90
2621;DHT22;1320;48.128;11.592;2024-03-06T15:40:58;7.60;99.90
2621;DHT22;1320;48.128;11.592;2024-03-06T15:43:24;7.60;99.90
2621;DHT22;1320;48.128;11.592;2024-03-06T15:45:50;7.60;99.90
2621;DHT22;1320;48.128;11.592;2024-03-06T15:48:15;7.60;99.90
2621;DHT22;1320;48.128;11.592;2024-03-06T15:50:42;7.60;99.90
2621;DHT22;1320;48.128;11.592;2024-03-06T15:53:08;7.60;99.90
2621;DHT22;1320;48.128;11.592;2024-03-06T15:55:34;7.70;99.90
2621;DHT22;1320;48.128;11.592;2024-03-06T15:58:04;7.70;99.90
2621;DHT22;1320;48.128;11.592;2024-03-06T16:00:30;7.70;99.90
2621;DHT22;1320;48.128;11.592;2024-03-06T16:02:56;7.70;99.90
2621;DHT22;1320;48.128;11.592;2024-03-06T16:05:23;7.70;99.90
2621;DHT22;1320;48.128;11.592;2024-03-06T16:07:49;7.70;99.90
2621;DHT22;1320;48.128;11.592;2024-03-06T16:10:15;7.60;99.90
2621;DHT22;1320;48.128;11.592;2024-03-06T16:12:41;7.60;99.90
2621;DHT22;1320;48.128;11.592;2024-03-06T16:15:07;7.70;99.90
2621;DHT22;1320;48.128;11.592;2024-03-06T16:17:32;7.70;99.90
2621;DHT22;1320;48.128;11.592;2024-03-06T16:20:00;7.70;99.90
2621;DHT22;1320;48.128;11.592;2024-03-06T16:22:25;7.70;99.90
2621;DHT22;1320;48.128;11.592;2024-03-06T16:24:51;7.70;99.90
2621;DHT22;1320;48.128;11.592;2024-03-06T16:27:17;7.70;99.90
2621;DHT22;1320;48.128;11.592;2024-03-06T16:29:43;7.70;99.90
2621;DHT22;1320;48.128;11.592;2024-03-06T16:32:09;7.70;99.90
2621;DHT22;1320;48.128;11.592;2024-03-06T16:34:35;7.70;99.90
2621;DHT22;1320;48.128;11.592;2024-03-06T16:37:01;7.70;99.90
2621;DHT22;1320;48.128;11.592;2024-03-06T16:39:31;7.70;99.90
2621;DHT22;1320;48.128;11.592;2024-03-06T16:41:56;7.70;99.90
2621;DHT22;1320;48.128;11.592;2024-03-06T16:44:22;7.70;99.90
2621;DHT22;1320;48.128;11.592;2024-03-06T16:46:49;7.60;99.90
2621;DHT22;1320;48.128;11.592;2024-03-06T16:49:14;7.60;99.90
2621;DHT22;1320;48.128;11.592;2024-03-06T16:51:40;7.60;99.90
2621;DHT22;1320;48.128;11.592;2024-03-06T16:54:06;7.60;99.90
2621;DHT22;1320;48.128;11.592;2024-03-06T16:56:31;7.60;99.90
2621;DHT22;1320;48.128;11.592;2024-03-06T16:58:57;7.60;99.90
2621;DHT22;1320;48.128;11.592;2024-03-06T17:01:23;7.60;99.90
2621;DHT22;1320;48.128;11.592;2024-03-06T17:03:49;7.60;99.90
2621;DHT22;1320;48.128;11.592;2024-03-06T17:06:15;7.60;99.90
2621;DHT22;1320;48.128;11.592;2024-03-06T17:08:41;7.60;99.90
2621;DHT22;1320;48.128;11.592;2024-03-06T17:11:11;7.50;99.90
2621;DHT22;1320;48.128;11.592;2024-03-06T17:13:37;7.50;99.90
2621;DHT22;1320;48.128;11.592;2024-03-06T17:16:08;7.50;99.90
2621;DHT22;1320;48.128;11.592;2024-03-06T17:18:35;7.50;99.90
2621;DHT22;1320;48.128;11.592;2024-03-06T17:21:04;7.50;99.90
2621;DHT22;1320;48.128;11.592;2024-03-06T17:23:31;7.50;99.90
2621;DHT22;1320;48.128;11.592;2024-03-06T17:26:00;7.50;99.90
2621;DHT22;1320;48.128;11.592;2024-03-06T17:28:26;7.50;99.90
2621;DHT22;1320;48.128;11.592;2024-03-06T17:30:52;7.50;99.90
2621;DHT22;1320;48.128;11.592;2024-03-06T17:33:21;7.50;99.90
2621;DHT22;1320;48.128;11.592;2024-03-06T17:35:47;7.40;99.90
2621;DHT22;1320;48.128;11.592;2024-03-06T17:38:15;7.40;99.90
2621;DHT22;1320;48.128;11.592;2024-03-06T17:40:41;7.50;99.90
2621;DHT22;1320;48.128;11.592;2024-03-06T17:43:12;7.50;99.90
2621;DHT22;1320;48.128;11.592;2024-03-06T17:45:38;7.40;99.90
2621;DHT22;1320;48.128;11.592;2024-03-06T17:48:04;7.40;99.90
2621;DHT22;1320;48.128;11.592;2024-03-06T17:50:31;7.40;99.90
2621;DHT22;1320;48.128;11.592;2024-03-06T17:52:59;7.40;99.90
2621;DHT22;1320;48.128;11.592;2024-03-06T17:55:25;7.40;99.90
2621;DHT22;1320;48.128;11.592;2024-03-06T17:57:51;7.30;99.90
2621;DHT22;1320;48.128;11.592;2024-03-06T18:00:19;7.30;99.90
2621;DHT22;1320;48.128;11.592;2024-03-06T18:02:44;7.20;99.90
2621;DHT22;1320;48.128;11.592;2024-03-06T18:05:11;7.20;99.90
2621;DHT22;1320;48.128;11.592;2024-03-06T18:07:37;7.10;99.90
2621;DHT22;1320;48.128;11.592;2024-03-06T18:10:03;7.10;99.90
2621;DHT22;1320;48.128;11.592;2024-03-06T18:12:29;7.10;99.90
2621;DHT22;1320;48.128;11.592;2024-03-06T18:14:58;7.10;99.90
2621;DHT22;1320;48.128;11.592;2024-03-06T18:17:25;7.10;99.90
2621;DHT22;1320;48.128;11.592;2024-03-06T18:19:51;7.10;99.90
2621;DHT22;1320;48.128;11.592;2024-03-06T18:22:17;7.10;99.90
2621;DHT22;1320;48.128;11.592;2024-03-06T18:24:43;7.20;99.90
2621;DHT22;1320;48.128;11.592;2024-03-06T18:27:12;7.20;99.90
2621;DHT22;1320;48.128;11.592;2024-03-06T18:29:38;7.20;99.90
2621;DHT22;1320;48.128;11.592;2024-03-06T18:32:05;7.20;99.90
2621;DHT22;1320;48.128;11.592;2024-03-06T18:34:31;7.10;99.90
2621;DHT22;1320;48.128;11.592;2024-03-06T18:36:59;7.00;99.90